createdAt,value
2019-02-16T00:01:03.654Z,59.61
2019-02-16T00:04:06.403Z,61.52
2019-02-16T00:07:12.001Z,60.18
2019-02-16T00:10:14.609Z,59.38
2019-02-16T00:13:18.336Z,60.14
2019-02-16T00:16:21.907Z,59.43
2019-02-16T00:19:24.562Z,59.97
2019-02-16T00:22:27.142Z,61.13
2019-02-16T00:25:29.681Z,59.81
2019-02-16T00:28:32.366Z,58.26
2019-02-16T00:31:35.053Z,59.04
2019-02-16T00:34:37.622Z,58.88
2019-02-16T00:37:40.483Z,59.35
2019-02-16T00:40:44.151Z,59.15
2019-02-16T00:43:46.851Z,59.07
2019-02-16T00:46:49.924Z,59.82
2019-02-16T00:49:52.547Z,58.73
2019-02-16T00:52:55.157Z,58.33
2019-02-16T00:55:57.933Z,59.41
2019-02-16T00:59:00.523Z,58.59
2019-02-16T01:02:03.152Z,59.12
2019-02-16T01:05:05.886Z,60.00
2019-02-16T01:08:08.446Z,59.94
2019-02-16T01:11:10.948Z,60.84
2019-02-16T01:14:13.497Z,58.42
2019-02-16T01:17:16.038Z,59.51
2019-02-16T01:20:18.618Z,59.67
2019-02-16T01:23:21.371Z,59.38
2019-02-16T01:26:24.127Z,59.33
2019-02-16T01:29:26.806Z,58.58
2019-02-16T01:32:29.507Z,58.94
2019-02-16T01:35:33.954Z,59.03
2019-02-16T01:38:36.590Z,58.42
2019-02-16T01:41:40.138Z,59.69
2019-02-16T01:44:42.761Z,58.82
2019-02-16T01:47:45.382Z,60.04
2019-02-16T01:50:48.086Z,59.81
2019-02-16T01:53:50.697Z,59.14
2019-02-16T01:56:53.403Z,59.58
2019-02-16T01:59:56.145Z,59.20
2019-02-16T02:02:58.701Z,60.14
2019-02-16T02:06:01.306Z,61.21
2019-02-16T02:09:04.528Z,57.61
2019-02-16T02:12:08.288Z,58.04
2019-02-16T02:15:10.946Z,58.76
2019-02-16T02:18:13.818Z,59.91
2019-02-16T02:21:16.353Z,60.07
2019-02-16T02:24:18.931Z,59.26
2019-02-16T02:27:21.931Z,60.94
2019-02-16T02:30:24.524Z,60.98
2019-02-16T02:33:27.193Z,61.04
2019-02-16T02:36:29.793Z,60.92
2019-02-16T02:39:32.356Z,61.27
2019-02-16T02:42:34.961Z,59.61
2019-02-16T02:45:37.644Z,59.78
2019-02-16T02:48:40.185Z,60.76
2019-02-16T02:51:51.710Z,63.30
2019-02-16T02:54:47.417Z,63.71
2019-02-16T02:57:49.945Z,64.23
2019-02-16T03:00:52.602Z,62.77
2019-02-16T03:03:55.186Z,63.60
2019-02-16T03:06:57.832Z,65.39
2019-02-16T03:10:00.456Z,65.76
2019-02-16T03:13:03.191Z,67.72
2019-02-16T03:16:05.737Z,68.06
2019-02-16T03:19:08.542Z,65.43
2019-02-16T03:22:11.242Z,66.48
2019-02-16T03:25:13.799Z,64.95
2019-02-16T03:28:35.762Z,64.78
2019-02-16T03:32:35.129Z,66.54
2019-02-16T03:36:54.092Z,66.02
2019-02-16T03:39:56.771Z,67.10
2019-02-16T03:42:59.459Z,67.00
2019-02-16T03:46:02.153Z,68.32
2019-02-16T03:49:04.830Z,69.06
2019-02-16T03:52:13.803Z,69.85
2019-02-16T03:55:12.757Z,68.24
2019-02-16T03:58:15.413Z,69.21
2019-02-16T04:01:18.068Z,70.86
2019-02-16T04:04:20.623Z,70.94
2019-02-16T04:07:23.219Z,70.12
2019-02-16T04:10:25.764Z,67.83
2019-02-16T04:13:28.408Z,68.13
2019-02-16T04:16:32.212Z,70.01
2019-02-16T04:19:34.846Z,69.44
2019-02-16T04:22:37.593Z,70.40
2019-02-16T04:25:40.133Z,71.68
2019-02-16T04:28:42.876Z,72.21
2019-02-16T04:31:45.446Z,71.87
2019-02-16T04:34:48.101Z,72.50
2019-02-16T04:37:50.804Z,70.62
2019-02-16T04:40:53.603Z,70.06
2019-02-16T04:43:56.271Z,65.23
2019-02-16T04:46:58.958Z,66.88
2019-02-16T04:50:01.563Z,63.85
2019-02-16T04:53:04.288Z,63.51
2019-02-16T04:56:06.852Z,65.91
2019-02-16T04:59:09.610Z,66.55
2019-02-16T05:02:12.375Z,69.02
2019-02-16T05:05:15.076Z,69.98
2019-02-16T05:08:17.650Z,69.72
2019-02-16T05:11:20.292Z,69.73
2019-02-16T05:14:22.943Z,68.65
2019-02-16T05:17:25.636Z,68.24
2019-02-16T05:20:28.208Z,67.74
2019-02-16T05:23:30.862Z,66.45
2019-02-16T05:26:33.548Z,69.15
2019-02-16T05:29:36.243Z,69.28
2019-02-16T05:32:38.844Z,71.67
2019-02-16T05:35:41.452Z,71.14
2019-02-16T05:38:44.187Z,71.76
2019-02-16T05:41:46.896Z,72.88
2019-02-16T05:44:49.636Z,73.48
2019-02-16T05:47:52.161Z,75.26
2019-02-16T05:50:54.792Z,75.73
2019-02-16T05:53:57.399Z,74.39
2019-02-16T05:57:00.100Z,74.95
2019-02-16T06:00:02.822Z,72.30
2019-02-16T06:03:05.547Z,71.84
2019-02-16T06:06:08.334Z,73.56
2019-02-16T06:09:10.911Z,72.75
2019-02-16T06:12:13.466Z,72.89
2019-02-16T06:15:16.015Z,73.50
2019-02-16T06:18:18.867Z,72.64
2019-02-16T06:21:21.603Z,73.49
2019-02-16T06:24:24.297Z,75.18
2019-02-16T06:27:26.967Z,75.50
2019-02-16T06:30:29.652Z,76.26
2019-02-16T06:33:32.335Z,76.13
2019-02-16T06:36:38.387Z,75.21
2019-02-16T06:39:40.969Z,76.05
2019-02-16T06:42:43.607Z,76.29
2019-02-16T06:45:46.194Z,76.01
2019-02-16T06:48:48.779Z,76.21
2019-02-16T06:51:51.279Z,75.88
2019-02-16T06:54:53.957Z,76.21
2019-02-16T06:57:56.549Z,77.59
2019-02-16T07:00:59.193Z,76.07
2019-02-16T07:04:01.859Z,75.95
2019-02-16T07:07:04.510Z,75.17
2019-02-16T07:10:09.927Z,75.34
2019-02-16T07:13:13.584Z,76.10
2019-02-16T07:16:46.384Z,75.13
2019-02-16T07:19:54.698Z,74.47
2019-02-16T07:22:57.203Z,74.39
2019-02-16T07:25:59.828Z,74.10
2019-02-16T07:29:02.580Z,73.65
2019-02-16T07:32:05.169Z,73.33
2019-02-16T07:35:07.812Z,73.69
2019-02-16T07:38:11.374Z,74.21
2019-02-16T07:41:14.036Z,74.07
2019-02-16T07:44:33.183Z,73.29
2019-02-16T07:47:50.262Z,67.46
2019-02-16T07:51:15.290Z,70.05
2019-02-16T07:54:25.134Z,67.42
2019-02-16T07:57:47.123Z,67.62
2019-02-16T08:01:09.198Z,65.26
2019-02-16T08:04:46.408Z,65.43
2019-02-16T08:07:56.603Z,64.11
2019-02-16T08:11:20.164Z,65.62
2019-02-16T08:14:31.784Z,65.79
2019-02-16T08:17:53.897Z,67.22
2019-02-16T08:21:09.927Z,67.80
2019-02-16T08:24:44.263Z,66.24
2019-02-16T08:28:06.345Z,66.83
2019-02-16T08:31:15.160Z,67.60
2019-02-16T08:34:33.194Z,67.66
2019-02-16T08:37:52.135Z,63.54
2019-02-16T08:41:20.219Z,65.81
2019-02-16T08:44:31.837Z,63.12
2019-02-16T08:47:52.985Z,59.58
2019-02-16T08:51:21.272Z,61.35
2019-02-16T08:54:43.832Z,58.43
2019-02-16T08:57:52.755Z,61.13
2019-02-16T09:01:27.606Z,62.49
2019-02-16T09:04:53.189Z,62.64
2019-02-16T09:08:08.202Z,56.23
2019-02-16T09:11:21.729Z,55.31
2019-02-16T09:14:56.084Z,58.69
2019-02-16T09:18:36.587Z,56.80
2019-02-16T09:22:07.953Z,53.98
2019-02-16T09:25:22.559Z,53.11
2019-02-16T09:28:43.233Z,52.78
2019-02-16T09:32:08.303Z,53.00
2019-02-16T09:35:33.542Z,54.41
2019-02-16T09:38:42.437Z,53.61
2019-02-16T09:42:03.773Z,53.44
2019-02-16T09:45:25.424Z,52.35
2019-02-16T09:48:36.176Z,52.20
2019-02-16T09:51:58.345Z,52.97
2019-02-16T09:55:20.340Z,50.35
2019-02-16T09:58:47.827Z,51.04
2019-02-16T10:02:19.149Z,51.81
2019-02-16T10:05:53.587Z,49.88
2019-02-16T10:09:10.477Z,50.12
2019-02-16T10:12:35.710Z,50.48
2019-02-16T10:16:00.760Z,49.58
2019-02-16T10:19:13.585Z,50.56
2019-02-16T10:22:47.898Z,49.93
2019-02-16T10:26:15.392Z,51.19
2019-02-16T10:29:27.184Z,49.68
2019-02-16T10:32:49.419Z,51.27
2019-02-16T10:36:02.138Z,51.09
2019-02-16T10:39:24.899Z,51.29
2019-02-16T10:42:39.845Z,51.36
2019-02-16T10:45:52.457Z,52.50
2019-02-16T10:49:20.644Z,49.99
2019-02-16T10:52:42.787Z,49.90
2019-02-16T10:56:17.629Z,48.58
2019-02-16T10:59:39.943Z,49.76
2019-02-16T11:02:57.951Z,49.39
2019-02-16T11:06:20.887Z,49.30
2019-02-16T11:09:44.152Z,49.73
2019-02-16T11:13:08.853Z,49.68
2019-02-16T11:16:54.410Z,50.39
2019-02-16T11:20:16.833Z,50.87
2019-02-16T11:23:41.737Z,50.22
2019-02-16T11:27:09.920Z,49.93
2019-02-16T11:30:21.530Z,50.48
2019-02-16T11:33:36.063Z,50.11
2019-02-16T11:36:45.037Z,50.26
2019-02-16T11:40:13.233Z,52.22
2019-02-16T11:43:35.333Z,49.60
2019-02-16T11:47:03.493Z,50.61
2019-02-16T11:50:37.755Z,50.59
2019-02-16T11:54:02.875Z,50.26
2019-02-16T11:57:40.262Z,50.40
2019-02-16T12:01:01.268Z,51.90
2019-02-16T12:04:22.185Z,51.25
2019-02-16T12:07:38.798Z,50.96
2019-02-16T12:11:00.967Z,50.32
2019-02-16T12:14:32.386Z,50.75
2019-02-16T12:17:43.314Z,50.96
2019-02-16T12:21:08.482Z,52.60
2019-02-16T12:24:36.824Z,51.82
2019-02-16T12:27:53.735Z,52.36
2019-02-16T12:31:22.005Z,50.88
2019-02-16T12:34:44.147Z,51.63
2019-02-16T12:37:53.645Z,52.06
2019-02-16T12:41:15.959Z,50.90
2019-02-16T12:44:41.230Z,51.92
2019-02-16T12:47:55.210Z,51.48
2019-02-16T12:51:05.880Z,51.33
2019-02-16T12:54:18.444Z,50.93
2019-02-16T12:57:46.624Z,50.63
2019-02-16T13:01:05.353Z,50.51
2019-02-16T13:04:30.428Z,52.03
2019-02-16T13:07:38.514Z,50.28
2019-02-16T13:11:03.699Z,48.76
2019-02-16T13:14:13.155Z,48.33
2019-02-16T13:17:41.287Z,48.80
2019-02-16T13:21:03.376Z,48.84
2019-02-16T13:24:10.204Z,48.91
2019-02-16T13:27:25.868Z,47.00
2019-02-16T13:30:46.237Z,47.86
2019-02-16T13:33:53.719Z,47.40
2019-02-16T13:37:12.833Z,47.29
2019-02-16T13:40:44.133Z,48.22
2019-02-16T13:44:12.249Z,47.70
2019-02-16T13:47:24.892Z,47.63
2019-02-16T13:50:38.990Z,46.91
2019-02-16T13:53:49.909Z,47.51
2019-02-16T13:57:21.165Z,46.87
2019-02-16T14:00:39.242Z,47.01
2019-02-16T14:04:01.315Z,46.17
2019-02-16T14:07:23.613Z,47.81
2019-02-16T14:10:37.033Z,45.77
2019-02-16T14:14:05.307Z,45.40
2019-02-16T14:17:30.382Z,45.28
2019-02-16T14:20:33.055Z,43.74
2019-02-16T14:23:35.687Z,42.73
2019-02-16T14:26:38.412Z,44.66
2019-02-16T14:29:41.086Z,44.72
2019-02-16T14:32:43.746Z,44.89
2019-02-16T14:35:46.426Z,44.27
2019-02-16T14:38:57.174Z,43.38
2019-02-16T14:41:59.907Z,44.92
2019-02-16T14:45:02.623Z,45.74
2019-02-16T14:48:05.242Z,45.62
2019-02-16T14:51:07.963Z,44.51
2019-02-16T14:54:10.673Z,44.75
2019-02-16T14:57:13.382Z,46.28
2019-02-16T15:00:16.262Z,46.16
2019-02-16T15:03:19.058Z,46.21
2019-02-16T15:06:21.858Z,45.68
2019-02-16T15:09:26.488Z,46.48
2019-02-16T15:12:29.109Z,45.93
2019-02-16T15:15:31.736Z,48.25
2019-02-16T15:18:34.416Z,47.81
2019-02-16T15:21:37.115Z,49.67
2019-02-16T15:24:39.793Z,48.81
2019-02-16T15:27:42.486Z,49.68
2019-02-16T15:30:45.117Z,50.70
2019-02-16T15:33:47.847Z,49.43
2019-02-16T15:36:50.518Z,50.06
2019-02-16T15:39:53.181Z,49.79
2019-02-16T15:42:55.892Z,50.49
2019-02-16T15:45:58.708Z,53.51
2019-02-16T15:49:01.381Z,54.61
2019-02-16T15:52:03.962Z,54.71
2019-02-16T15:55:07.727Z,54.91
2019-02-16T15:58:10.316Z,56.98
2019-02-16T16:01:12.955Z,58.50
2019-02-16T16:04:15.720Z,59.83
2019-02-16T16:07:18.476Z,58.82
2019-02-16T16:10:29.769Z,59.34
2019-02-16T16:13:50.487Z,58.91
2019-02-16T16:17:12.495Z,59.12
2019-02-16T16:20:34.595Z,59.81
2019-02-16T16:23:51.767Z,60.03
2019-02-16T16:27:04.317Z,60.24
2019-02-16T16:30:44.732Z,60.45
2019-02-16T16:34:15.911Z,61.26
2019-02-16T16:37:43.931Z,62.52
2019-02-16T16:41:09.020Z,62.70
2019-02-16T16:44:22.609Z,62.86
2019-02-16T16:47:50.791Z,61.34
2019-02-16T16:51:03.208Z,62.65
2019-02-16T16:54:14.988Z,62.49
2019-02-16T16:57:35.946Z,63.15
2019-02-16T17:01:16.441Z,63.68
2019-02-16T17:04:24.111Z,64.13
2019-02-16T17:07:46.182Z,64.19
2019-02-16T17:11:02.791Z,64.79
2019-02-16T17:14:17.106Z,65.25
2019-02-16T17:17:36.442Z,63.12
2019-02-16T17:21:05.632Z,64.92
2019-02-16T17:24:26.469Z,65.41
2019-02-16T17:27:42.177Z,68.82
2019-02-16T17:30:54.352Z,66.87
2019-02-16T17:34:03.228Z,66.24
2019-02-16T17:37:21.380Z,67.18
2019-02-16T17:40:34.102Z,67.71
2019-02-16T17:43:49.612Z,66.79
2019-02-16T17:47:10.682Z,67.02
2019-02-16T17:50:32.476Z,68.73
2019-02-16T17:53:57.570Z,68.26
2019-02-16T17:57:19.647Z,68.70
2019-02-16T18:00:49.021Z,69.96
2019-02-16T18:04:09.951Z,69.11
2019-02-16T18:07:44.194Z,65.38
2019-02-16T18:11:06.355Z,64.47
2019-02-16T18:14:31.420Z,65.31
2019-02-16T18:17:59.802Z,67.94
2019-02-16T18:21:33.959Z,69.15
2019-02-16T18:24:52.136Z,66.97
2019-02-16T18:28:14.235Z,67.99
2019-02-16T18:31:51.581Z,69.93
2019-02-16T18:35:32.804Z,70.54
2019-02-16T18:38:54.868Z,71.46
2019-02-16T18:42:15.526Z,70.70
2019-02-16T18:45:43.650Z,70.15
2019-02-16T18:49:21.125Z,67.41
2019-02-16T18:52:49.372Z,67.31
2019-02-16T18:56:15.420Z,69.59
2019-02-16T18:59:33.851Z,67.47
2019-02-16T19:02:52.903Z,67.67
2019-02-16T19:06:16.680Z,68.21
2019-02-16T19:09:26.422Z,65.08
2019-02-16T19:12:47.411Z,65.35
2019-02-16T19:16:08.446Z,68.01
2019-02-16T19:19:33.367Z,70.02
2019-02-16T19:22:54.256Z,71.59
2019-02-16T19:26:12.977Z,72.01
2019-02-16T19:29:33.897Z,71.63
2019-02-16T19:33:23.396Z,72.14
2019-02-16T19:36:45.446Z,71.12
2019-02-16T19:40:03.649Z,72.02
2019-02-16T19:43:29.821Z,71.48
2019-02-16T19:46:58.491Z,72.78
2019-02-16T19:50:19.292Z,73.33
2019-02-16T19:53:40.135Z,71.79
2019-02-16T19:56:58.487Z,72.17
2019-02-16T20:00:31.767Z,71.74
2019-02-16T20:03:41.330Z,72.71
2019-02-16T20:07:02.400Z,73.58
2019-02-16T20:10:23.860Z,73.78
2019-02-16T20:13:44.674Z,73.09
2019-02-16T20:17:06.459Z,72.62
2019-02-16T20:20:20.070Z,72.99
2019-02-16T20:23:42.213Z,71.44
2019-02-16T20:27:19.736Z,73.78
2019-02-16T20:30:44.700Z,73.40
2019-02-16T20:34:06.092Z,74.12
2019-02-16T20:37:34.304Z,74.54
2019-02-16T20:40:56.499Z,74.98
2019-02-16T20:44:17.221Z,74.36
2019-02-16T20:47:37.855Z,74.68
2019-02-16T20:51:06.891Z,74.45
2019-02-16T20:54:27.765Z,75.31
2019-02-16T20:57:48.872Z,75.09
2019-02-16T21:01:12.072Z,75.61
2019-02-16T21:04:25.404Z,76.46
2019-02-16T21:07:59.640Z,75.91
2019-02-16T21:11:24.234Z,75.04
2019-02-16T21:14:42.869Z,75.15
2019-02-16T21:18:00.241Z,76.04
2019-02-16T21:21:22.339Z,75.30
2019-02-16T21:24:41.092Z,74.68
2019-02-16T21:28:12.415Z,75.90
2019-02-16T21:31:29.867Z,75.34
2019-02-16T21:34:52.035Z,75.47
2019-02-16T21:38:12.944Z,74.96
2019-02-16T21:41:30.767Z,75.42
2019-02-16T21:45:01.901Z,75.55
2019-02-16T21:48:13.075Z,75.46
2019-02-16T21:51:40.946Z,76.23
2019-02-16T21:54:48.984Z,74.34
2019-02-16T21:58:24.864Z,75.10
2019-02-16T22:01:49.884Z,77.11
2019-02-16T22:05:02.856Z,76.94
2019-02-16T22:08:19.232Z,76.87
2019-02-16T22:11:28.896Z,76.90
2019-02-16T22:14:31.521Z,77.14
2019-02-16T22:17:36.413Z,75.36
2019-02-16T22:20:39.286Z,75.68
2019-02-16T22:23:42.055Z,77.42
2019-02-16T22:26:44.683Z,77.96
2019-02-16T22:29:47.395Z,78.70
2019-02-16T22:32:55.655Z,77.29
2019-02-16T22:35:58.539Z,77.93
2019-02-16T22:39:02.312Z,78.68
2019-02-16T22:42:08.060Z,78.48
2019-02-16T22:45:11.165Z,78.29
2019-02-16T22:48:14.468Z,79.61
2019-02-16T22:51:17.123Z,77.84
2019-02-16T22:54:19.866Z,77.85
2019-02-16T22:57:22.555Z,79.04
2019-02-16T23:00:36.731Z,80.29
2019-02-16T23:03:41.048Z,78.23
2019-02-16T23:06:45.180Z,79.22
2019-02-16T23:09:47.885Z,80.32
2019-02-16T23:12:50.574Z,80.28
2019-02-16T23:15:53.149Z,81.02
2019-02-16T23:18:55.882Z,80.58
2019-02-16T23:21:58.509Z,81.89
2019-02-16T23:25:02.552Z,82.22
2019-02-16T23:28:06.375Z,81.52
2019-02-16T23:31:09.107Z,81.85
2019-02-16T23:34:12.931Z,81.94
2019-02-16T23:37:15.573Z,81.36
2019-02-16T23:40:18.297Z,81.70
2019-02-16T23:43:20.855Z,81.09
2019-02-16T23:46:26.174Z,80.46
2019-02-16T23:49:29.158Z,80.29
2019-02-16T23:52:33.632Z,80.96
2019-02-16T23:55:36.459Z,79.03
2019-02-16T23:58:48.637Z,80.00
